Bristol, New Hampshire
Current Conditions -  °F | °C
As of 12:55 AM on Monday 20 Oct 2014 (Local Time) from K1P1 Reporting Station
Overcast Overcast  
Wind Chill:   Ceiling: 4500
Heat Index:   Visibility: 10mi
Dew Point:   Wind: 0mph
Humidity: 74%   Direction: NA
Pressure: 29.93"   Gusts: NA
Location:  43.6°N, 71.75°W
Report Text: K1P1 200455Z AUTO 00000KT 10SM SCT039 OVC045 04/00 A2993 RMK AO2 T00401003
Loading
Personal Weather Stations






























Interactive Weather Map
Tropical Storm Tracking
New forecast layout! Learn more

10-Day Weather Forecast

Advertisements
Track Severe Weather on mobile